sensor_id;sensor_type;location;lat;lon;timestamp;pressure;altitude;pressure_sealevel;temperature;humidity
60646;BME280;46462;32.608;-117.032;2024-02-26T00:01:14;99604.18;;;23.90;41.74
60646;BME280;46462;32.608;-117.032;2024-02-26T00:03:45;99604.30;;;24.20;41.09
60646;BME280;46462;32.608;-117.032;2024-02-26T00:06:15;99604.01;;;24.14;41.24
60646;BME280;46462;32.608;-117.032;2024-02-26T00:08:46;99600.72;;;24.09;41.30
60646;BME280;46462;32.608;-117.032;2024-02-26T00:11:17;99600.73;;;24.06;41.45
60646;BME280;46462;32.608;-117.032;2024-02-26T00:13:48;99602.09;;;24.05;41.50
60646;BME280;46462;32.608;-117.032;2024-02-26T00:16:18;99600.40;;;24.04;41.59
60646;BME280;46462;32.608;-117.032;2024-02-26T00:18:49;99597.06;;;24.03;41.61
60646;BME280;46462;32.608;-117.032;2024-02-26T00:21:20;99601.59;;;24.03;41.66
60646;BME280;46462;32.608;-117.032;2024-02-26T00:23:52;99609.81;;;24.02;41.78
60646;BME280;46462;32.608;-117.032;2024-02-26T00:26:22;99608.35;;;24.02;41.81
60646;BME280;46462;32.608;-117.032;2024-02-26T00:28:52;99610.92;;;24.02;41.79
60646;BME280;46462;32.608;-117.032;2024-02-26T00:31:23;99609.94;;;24.02;41.83
60646;BME280;46462;32.608;-117.032;2024-02-26T00:33:54;99598.99;;;24.03;41.78
60646;BME280;46462;32.608;-117.032;2024-02-26T00:36:24;99593.98;;;24.02;41.82
60646;BME280;46462;32.608;-117.032;2024-02-26T00:38:55;99594.32;;;24.02;41.84
60646;BME280;46462;32.608;-117.032;2024-02-26T00:41:26;99602.97;;;24.03;41.86
60646;BME280;46462;32.608;-117.032;2024-02-26T00:43:57;99613.91;;;24.03;41.90
60646;BME280;46462;32.608;-117.032;2024-02-26T00:46:27;99605.00;;;24.03;41.90
60646;BME280;46462;32.608;-117.032;2024-02-26T00:48:58;99593.74;;;24.02;41.91
60646;BME280;46462;32.608;-117.032;2024-02-26T00:51:29;99594.79;;;24.03;41.92
60646;BME280;46462;32.608;-117.032;2024-02-26T00:53:59;99602.96;;;24.03;41.93
60646;BME280;46462;32.608;-117.032;2024-02-26T00:56:30;99594.29;;;24.04;41.91
60646;BME280;46462;32.608;-117.032;2024-02-26T00:59:01;99589.39;;;24.03;41.93
60646;BME280;46462;32.608;-117.032;2024-02-26T01:01:31;99589.40;;;24.05;41.92
60646;BME280;46462;32.608;-117.032;2024-02-26T01:04:02;99596.61;;;24.04;41.98
60646;BME280;46462;32.608;-117.032;2024-02-26T01:06:33;99590.52;;;24.04;41.91
60646;BME280;46462;32.608;-117.032;2024-02-26T01:09:05;99581.33;;;24.04;41.96
60646;BME280;46462;32.608;-117.032;2024-02-26T01:11:34;99572.22;;;24.05;42.02
60646;BME280;46462;32.608;-117.032;2024-02-26T01:14:05;99584.78;;;24.04;42.05
60646;BME280;46462;32.608;-117.032;2024-02-26T01:16:36;99590.15;;;24.04;42.05
60646;BME280;46462;32.608;-117.032;2024-02-26T01:19:07;99591.13;;;24.03;42.06
60646;BME280;46462;32.608;-117.032;2024-02-26T01:21:37;99583.50;;;24.03;42.06
60646;BME280;46462;32.608;-117.032;2024-02-26T01:24:08;99576.34;;;24.03;42.13
60646;BME280;46462;32.608;-117.032;2024-02-26T01:26:39;99579.25;;;24.03;42.17
60646;BME280;46462;32.608;-117.032;2024-02-26T01:29:10;99579.74;;;24.01;42.20
60646;BME280;46462;32.608;-117.032;2024-02-26T01:31:40;99582.72;;;23.99;42.23
60646;BME280;46462;32.608;-117.032;2024-02-26T01:34:11;99578.31;;;23.98;42.32
60646;BME280;46462;32.608;-117.032;2024-02-26T01:36:42;99579.52;;;23.98;42.38
60646;BME280;46462;32.608;-117.032;2024-02-26T01:39:13;99580.78;;;23.96;42.44
60646;BME280;46462;32.608;-117.032;2024-02-26T01:41:43;99578.21;;;24.04;42.32
60646;BME280;46462;32.608;-117.032;2024-02-26T01:44:15;99574.60;;;24.02;42.44
60646;BME280;46462;32.608;-117.032;2024-02-26T01:46:45;99570.83;;;23.99;42.55
60646;BME280;46462;32.608;-117.032;2024-02-26T01:49:16;99569.02;;;23.96;42.63
60646;BME280;46462;32.608;-117.032;2024-02-26T01:51:47;99548.08;;;23.97;42.58
60646;BME280;46462;32.608;-117.032;2024-02-26T01:54:17;99537.77;;;23.95;42.62
60646;BME280;46462;32.608;-117.032;2024-02-26T01:56:48;99533.17;;;23.92;42.72
60646;BME280;46462;32.608;-117.032;2024-02-26T01:59:19;99535.72;;;23.90;42.90
60646;BME280;46462;32.608;-117.032;2024-02-26T02:01:54;99539.96;;;23.89;42.89
60646;BME280;46462;32.608;-117.032;2024-02-26T02:04:21;99544.33;;;23.85;42.95
60646;BME280;46462;32.608;-117.032;2024-02-26T02:06:51;99538.98;;;23.88;42.97
60646;BME280;46462;32.608;-117.032;2024-02-26T02:09:22;99550.66;;;23.91;42.93
60646;BME280;46462;32.608;-117.032;2024-02-26T02:11:53;99554.91;;;23.95;42.85
60646;BME280;46462;32.608;-117.032;2024-02-26T02:14:24;99557.29;;;23.95;42.86
60646;BME280;46462;32.608;-117.032;2024-02-26T02:16:54;99564.10;;;23.98;42.82
60646;BME280;46462;32.608;-117.032;2024-02-26T02:19:25;99561.08;;;23.97;42.83
60646;BME280;46462;32.608;-117.032;2024-02-26T02:21:55;99555.61;;;24.00;42.75
60646;BME280;46462;32.608;-117.032;2024-02-26T02:24:26;99540.23;;;23.98;42.81
60646;BME280;46462;32.608;-117.032;2024-02-26T02:26:57;99548.67;;;24.00;42.78
60646;BME280;46462;32.608;-117.032;2024-02-26T02:29:28;99555.98;;;23.99;42.85
60646;BME280;46462;32.608;-117.032;2024-02-26T02:31:59;99547.63;;;23.99;42.82
60646;BME280;46462;32.608;-117.032;2024-02-26T02:34:29;99538.48;;;23.98;42.86
60646;BME280;46462;32.608;-117.032;2024-02-26T02:37:00;99549.15;;;24.00;42.86
60646;BME280;46462;32.608;-117.032;2024-02-26T02:39:31;99545.74;;;23.97;42.93
60646;BME280;46462;32.608;-117.032;2024-02-26T02:42:01;99528.89;;;24.00;42.91
60646;BME280;46462;32.608;-117.032;2024-02-26T02:44:32;99527.71;;;23.97;42.95
60646;BME280;46462;32.608;-117.032;2024-02-26T02:47:03;99525.85;;;24.02;42.84
60646;BME280;46462;32.608;-117.032;2024-02-26T02:49:34;99539.39;;;23.97;42.96
60646;BME280;46462;32.608;-117.032;2024-02-26T02:52:05;99535.91;;;23.99;42.91
60646;BME280;46462;32.608;-117.032;2024-02-26T02:54:35;99543.98;;;24.00;42.96
60646;BME280;46462;32.608;-117.032;2024-02-26T02:57:06;99544.23;;;24.01;42.89
60646;BME280;46462;32.608;-117.032;2024-02-26T02:59:37;99543.43;;;23.99;42.97
60646;BME280;46462;32.608;-117.032;2024-02-26T03:02:08;99547.21;;;24.02;42.90
60646;BME280;46462;32.608;-117.032;2024-02-26T03:04:38;99544.86;;;24.04;42.84
60646;BME280;46462;32.608;-117.032;2024-02-26T03:07:09;99537.03;;;24.06;42.81
60646;BME280;46462;32.608;-117.032;2024-02-26T03:09:40;99542.51;;;24.04;42.82
60646;BME280;46462;32.608;-117.032;2024-02-26T03:12:11;99548.65;;;24.07;42.80
60646;BME280;46462;32.608;-117.032;2024-02-26T03:14:41;99557.14;;;24.04;42.78
60646;BME280;46462;32.608;-117.032;2024-02-26T03:17:12;99566.57;;;24.04;42.82
60646;BME280;46462;32.608;-117.032;2024-02-26T03:19:44;99567.63;;;24.05;42.85
60646;BME280;46462;32.608;-117.032;2024-02-26T03:22:14;99566.90;;;24.06;42.83
60646;BME280;46462;32.608;-117.032;2024-02-26T03:24:44;99566.47;;;24.02;42.86
60646;BME280;46462;32.608;-117.032;2024-02-26T03:27:15;99568.60;;;24.01;42.93
60646;BME280;46462;32.608;-117.032;2024-02-26T03:29:46;99561.71;;;24.01;42.95
60646;BME280;46462;32.608;-117.032;2024-02-26T03:32:16;99554.14;;;24.00;43.07
60646;BME280;46462;32.608;-117.032;2024-02-26T03:34:47;99559.00;;;23.98;43.09
60646;BME280;46462;32.608;-117.032;2024-02-26T03:37:18;99567.65;;;23.96;43.09
60646;BME280;46462;32.608;-117.032;2024-02-26T03:39:49;99576.21;;;23.93;43.19
60646;BME280;46462;32.608;-117.032;2024-02-26T03:42:19;99587.97;;;23.94;43.16
60646;BME280;46462;32.608;-117.032;2024-02-26T03:44:50;99617.93;;;23.92;43.17
60646;BME280;46462;32.608;-117.032;2024-02-26T03:47:21;99612.16;;;23.96;43.21
60646;BME280;46462;32.608;-117.032;2024-02-26T03:49:52;99609.57;;;23.92;43.12
60646;BME280;46462;32.608;-117.032;2024-02-26T03:52:22;99617.78;;;23.91;43.23
60646;BME280;46462;32.608;-117.032;2024-02-26T03:54:53;99606.67;;;23.88;43.29
60646;BME280;46462;32.608;-117.032;2024-02-26T03:57:24;99606.76;;;23.88;43.33
60646;BME280;46462;32.608;-117.032;2024-02-26T03:59:55;99610.86;;;23.89;43.44
60646;BME280;46462;32.608;-117.032;2024-02-26T04:02:26;99621.55;;;23.94;43.32
60646;BME280;46462;32.608;-117.032;2024-02-26T04:04:56;99629.88;;;23.96;43.27
60646;BME280;46462;32.608;-117.032;2024-02-26T04:07:27;99630.22;;;23.99;43.21
60646;BME280;46462;32.608;-117.032;2024-02-26T04:09:58;99625.49;;;24.00;43.17
60646;BME280;46462;32.608;-117.032;2024-02-26T04:12:28;99623.25;;;23.99;43.18
60646;BME280;46462;32.608;-117.032;2024-02-26T04:14:59;99618.10;;;24.01;43.14
60646;BME280;46462;32.608;-117.032;2024-02-26T04:17:30;99624.19;;;24.01;43.17
60646;BME280;46462;32.608;-117.032;2024-02-26T04:20:01;99624.57;;;23.98;43.19
60646;BME280;46462;32.608;-117.032;2024-02-26T04:22:32;99625.68;;;23.96;43.23
60646;BME280;46462;32.608;-117.032;2024-02-26T04:25:02;99621.59;;;23.99;43.22
60646;BME280;46462;32.608;-117.032;2024-02-26T04:27:33;99610.52;;;24.01;43.18
60646;BME280;46462;32.608;-117.032;2024-02-26T04:30:08;99617.05;;;24.00;43.24
60646;BME280;46462;32.608;-117.032;2024-02-26T04:32:38;99617.70;;;24.02;43.22
60646;BME280;46462;32.608;-117.032;2024-02-26T04:35:09;99627.03;;;23.98;43.26
60646;BME280;46462;32.608;-117.032;2024-02-26T04:37:40;99629.97;;;23.99;43.29
60646;BME280;46462;32.608;-117.032;2024-02-26T04:40:11;99626.92;;;23.96;43.31
60646;BME280;46462;32.608;-117.032;2024-02-26T04:42:41;99629.92;;;23.96;43.28
60646;BME280;46462;32.608;-117.032;2024-02-26T04:45:12;99636.44;;;23.95;43.33
60646;BME280;46462;32.608;-117.032;2024-02-26T04:47:42;99657.43;;;23.97;43.32
60646;BME280;46462;32.608;-117.032;2024-02-26T04:50:13;99660.33;;;24.04;43.18
60646;BME280;46462;32.608;-117.032;2024-02-26T04:52:44;99657.54;;;24.05;43.13
60646;BME280;46462;32.608;-117.032;2024-02-26T04:55:15;99672.32;;;24.02;43.23
60646;BME280;46462;32.608;-117.032;2024-02-26T04:57:45;99678.45;;;24.01;43.24
60646;BME280;46462;32.608;-117.032;2024-02-26T05:00:17;99673.94;;;23.99;43.40
60646;BME280;46462;32.608;-117.032;2024-02-26T05:02:47;99666.52;;;23.97;43.27
60646;BME280;46462;32.608;-117.032;2024-02-26T05:05:18;99675.85;;;23.94;43.37
60646;BME280;46462;32.608;-117.032;2024-02-26T05:07:49;99676.25;;;23.96;43.39
60646;BME280;46462;32.608;-117.032;2024-02-26T05:10:19;99683.98;;;23.92;43.41
60646;BME280;46462;32.608;-117.032;2024-02-26T05:12:50;99694.86;;;23.89;43.47
60646;BME280;46462;32.608;-117.032;2024-02-26T05:15:21;99693.53;;;23.84;43.60
60646;BME280;46462;32.608;-117.032;2024-02-26T05:17:51;99686.54;;;23.85;43.62
60646;BME280;46462;32.608;-117.032;2024-02-26T05:20:22;99689.61;;;23.86;43.63
60646;BME280;46462;32.608;-117.032;2024-02-26T05:22:53;99701.13;;;23.87;43.63
60646;BME280;46462;32.608;-117.032;2024-02-26T05:25:24;99707.98;;;23.82;43.73
60646;BME280;46462;32.608;-117.032;2024-02-26T05:27:55;99714.88;;;23.76;43.77
60646;BME280;46462;32.608;-117.032;2024-02-26T05:30:25;99729.73;;;23.72;43.87
60646;BME280;46462;32.608;-117.032;2024-02-26T05:32:56;99735.87;;;23.73;43.81
60646;BME280;46462;32.608;-117.032;2024-02-26T05:35:27;99744.42;;;23.72;43.84
60646;BME280;46462;32.608;-117.032;2024-02-26T05:37:57;99748.53;;;23.73;43.89
60646;BME280;46462;32.608;-117.032;2024-02-26T05:40:28;99751.10;;;23.75;43.85
60646;BME280;46462;32.608;-117.032;2024-02-26T05:42:59;99747.37;;;23.73;43.85
60646;BME280;46462;32.608;-117.032;2024-02-26T05:45:30;99747.76;;;23.68;43.96
60646;BME280;46462;32.608;-117.032;2024-02-26T05:48:00;99733.28;;;23.65;44.01
60646;BME280;46462;32.608;-117.032;2024-02-26T05:50:31;99723.42;;;23.70;43.89
60646;BME280;46462;32.608;-117.032;2024-02-26T05:53:02;99719.61;;;23.71;43.88
60646;BME280;46462;32.608;-117.032;2024-02-26T05:55:33;99715.36;;;23.69;43.98
60646;BME280;46462;32.608;-117.032;2024-02-26T05:58:04;99722.60;;;23.67;44.05
60646;BME280;46462;32.608;-117.032;2024-02-26T06:00:34;99728.93;;;23.66;44.09
60646;BME280;46462;32.608;-117.032;2024-02-26T06:03:05;99724.21;;;23.66;44.10
60646;BME280;46462;32.608;-117.032;2024-02-26T06:05:36;99730.23;;;23.62;44.14
60646;BME280;46462;32.608;-117.032;2024-02-26T06:08:07;99747.88;;;23.64;44.10
60646;BME280;46462;32.608;-117.032;2024-02-26T06:10:37;99739.97;;;23.70;44.01
60646;BME280;46462;32.608;-117.032;2024-02-26T06:13:08;99736.50;;;23.72;43.97
60646;BME280;46462;32.608;-117.032;2024-02-26T06:15:39;99729.28;;;23.72;43.96
60646;BME280;46462;32.608;-117.032;2024-02-26T06:18:09;99710.78;;;23.73;43.94
60646;BME280;46462;32.608;-117.032;2024-02-26T06:20:40;99711.86;;;23.71;43.97
60646;BME280;46462;32.608;-117.032;2024-02-26T06:23:11;99704.96;;;23.73;43.89
60646;BME280;46462;32.608;-117.032;2024-02-26T06:25:42;99687.34;;;23.74;43.85
60646;BME280;46462;32.608;-117.032;2024-02-26T06:28:12;99690.15;;;23.78;43.75
60646;BME280;46462;32.608;-117.032;2024-02-26T06:30:43;99691.87;;;23.78;43.74
60646;BME280;46462;32.608;-117.032;2024-02-26T06:33:14;99691.83;;;23.78;43.75
60646;BME280;46462;32.608;-117.032;2024-02-26T06:35:45;99707.25;;;23.75;43.88
60646;BME280;46462;32.608;-117.032;2024-02-26T06:38:15;99719.46;;;23.76;43.84
60646;BME280;46462;32.608;-117.032;2024-02-26T06:40:47;99714.69;;;23.75;43.89
60646;BME280;46462;32.608;-117.032;2024-02-26T06:43:17;99709.98;;;23.77;43.84
60646;BME280;46462;32.608;-117.032;2024-02-26T06:45:48;99708.34;;;23.74;43.82
60646;BME280;46462;32.608;-117.032;2024-02-26T06:48:18;99710.39;;;23.75;43.87
60646;BME280;46462;32.608;-117.032;2024-02-26T06:50:49;99715.69;;;23.73;43.78
60646;BME280;46462;32.608;-117.032;2024-02-26T06:53:20;99720.36;;;23.74;43.84
60646;BME280;46462;32.608;-117.032;2024-02-26T06:55:51;99726.15;;;23.72;43.86
60646;BME280;46462;32.608;-117.032;2024-02-26T06:58:21;99729.04;;;23.75;43.86
60646;BME280;46462;32.608;-117.032;2024-02-26T07:00:52;99726.00;;;23.73;43.84
60646;BME280;46462;32.608;-117.032;2024-02-26T07:03:23;99718.76;;;23.73;43.90
60646;BME280;46462;32.608;-117.032;2024-02-26T07:05:54;99721.42;;;23.70;43.95
60646;BME280;46462;32.608;-117.032;2024-02-26T07:08:24;99734.98;;;23.71;43.89
60646;BME280;46462;32.608;-117.032;2024-02-26T07:10:55;99719.18;;;23.69;44.02
60646;BME280;46462;32.608;-117.032;2024-02-26T07:13:26;99699.77;;;23.69;43.90
60646;BME280;46462;32.608;-117.032;2024-02-26T07:15:57;99692.04;;;23.68;43.95
60646;BME280;46462;32.608;-117.032;2024-02-26T07:18:27;99690.63;;;23.66;43.93
60646;BME280;46462;32.608;-117.032;2024-02-26T07:21:01;99679.49;;;23.65;44.05
60646;BME280;46462;32.608;-117.032;2024-02-26T07:23:29;99675.07;;;23.66;43.98
60646;BME280;46462;32.608;-117.032;2024-02-26T07:26:00;99681.39;;;23.55;44.30
60646;BME280;46462;32.608;-117.032;2024-02-26T07:28:30;99688.85;;;23.56;44.22
60646;BME280;46462;32.608;-117.032;2024-02-26T07:31:01;99681.81;;;23.50;44.40
60646;BME280;46462;32.608;-117.032;2024-02-26T07:33:32;99685.24;;;23.52;44.22
60646;BME280;46462;32.608;-117.032;2024-02-26T07:36:03;99695.58;;;23.51;44.32
60646;BME280;46462;32.608;-117.032;2024-02-26T07:38:33;99714.24;;;23.47;44.41
60646;BME280;46462;32.608;-117.032;2024-02-26T07:41:05;99720.33;;;23.45;44.47
60646;BME280;46462;32.608;-117.032;2024-02-26T07:43:35;99708.15;;;23.45;44.56
60646;BME280;46462;32.608;-117.032;2024-02-26T07:46:06;99698.59;;;23.42;44.57
60646;BME280;46462;32.608;-117.032;2024-02-26T07:48:37;99693.69;;;23.50;44.35
60646;BME280;46462;32.608;-117.032;2024-02-26T07:51:07;99691.54;;;23.49;44.38
60646;BME280;46462;32.608;-117.032;2024-02-26T07:53:38;99677.95;;;23.46;44.43
60646;BME280;46462;32.608;-117.032;2024-02-26T07:56:09;99665.87;;;23.39;44.64
60646;BME280;46462;32.608;-117.032;2024-02-26T07:58:40;99664.61;;;23.37;44.72
60646;BME280;46462;32.608;-117.032;2024-02-26T08:01:13;99668.75;;;23.43;44.53
60646;BME280;46462;32.608;-117.032;2024-02-26T08:03:41;99676.28;;;23.48;44.41
60646;BME280;46462;32.608;-117.032;2024-02-26T08:06:12;99660.09;;;23.47;44.49
60646;BME280;46462;32.608;-117.032;2024-02-26T08:08:43;99655.45;;;23.49;44.34
60646;BME280;46462;32.608;-117.032;2024-02-26T08:11:15;99655.86;;;23.45;44.50
60646;BME280;46462;32.608;-117.032;2024-02-26T08:13:44;99657.38;;;23.42;44.53
60646;BME280;46462;32.608;-117.032;2024-02-26T08:16:15;99664.62;;;23.47;44.32
60646;BME280;46462;32.608;-117.032;2024-02-26T08:18:46;99669.62;;;23.49;44.31
60646;BME280;46462;32.608;-117.032;2024-02-26T08:21:16;99674.66;;;23.50;44.26
60646;BME280;46462;32.608;-117.032;2024-02-26T08:23:47;99678.21;;;23.53;44.12
60646;BME280;46462;32.608;-117.032;2024-02-26T08:26:18;99674.59;;;23.49;44.32
60646;BME280;46462;32.608;-117.032;2024-02-26T08:28:49;99688.61;;;23.40;44.55
60646;BME280;46462;32.608;-117.032;2024-02-26T08:31:19;99684.66;;;23.44;44.34
60646;BME280;46462;32.608;-117.032;2024-02-26T08:33:50;99671.97;;;23.43;44.46
60646;BME280;46462;32.608;-117.032;2024-02-26T08:36:21;99666.93;;;23.37;44.67
60646;BME280;46462;32.608;-117.032;2024-02-26T08:38:51;99680.59;;;23.40;44.54
60646;BME280;46462;32.608;-117.032;2024-02-26T08:41:22;99688.17;;;23.35;44.65
60646;BME280;46462;32.608;-117.032;2024-02-26T08:43:53;99701.30;;;23.44;44.39
60646;BME280;46462;32.608;-117.032;2024-02-26T08:46:24;99709.70;;;23.42;44.47
60646;BME280;46462;32.608;-117.032;2024-02-26T08:48:55;99708.44;;;23.41;44.44
60646;BME280;46462;32.608;-117.032;2024-02-26T08:51:25;99706.91;;;23.39;44.57
60646;BME280;46462;32.608;-117.032;2024-02-26T08:53:57;99705.69;;;23.43;44.41
60646;BME280;46462;32.608;-117.032;2024-02-26T08:56:27;99693.68;;;23.43;44.40
60646;BME280;46462;32.608;-117.032;2024-02-26T08:58:57;99694.03;;;23.42;44.28
60646;BME280;46462;32.608;-117.032;2024-02-26T09:01:28;99691.37;;;23.44;44.31
60646;BME280;46462;32.608;-117.032;2024-02-26T09:03:59;99703.93;;;23.41;44.40
60646;BME280;46462;32.608;-117.032;2024-02-26T09:06:30;99709.32;;;23.34;44.58
60646;BME280;46462;32.608;-117.032;2024-02-26T09:09:01;99702.22;;;23.36;44.45
60646;BME280;46462;32.608;-117.032;2024-02-26T09:11:31;99686.90;;;23.34;44.53
60646;BME280;46462;32.608;-117.032;2024-02-26T09:14:02;99681.04;;;23.37;44.44
60646;BME280;46462;32.608;-117.032;2024-02-26T09:16:33;99686.42;;;23.30;44.60
60646;BME280;46462;32.608;-117.032;2024-02-26T09:19:04;99693.27;;;23.34;44.45
60646;BME280;46462;32.608;-117.032;2024-02-26T09:21:35;99691.84;;;23.36;44.45
60646;BME280;46462;32.608;-117.032;2024-02-26T09:24:05;99691.80;;;23.33;44.49
60646;BME280;46462;32.608;-117.032;2024-02-26T09:26:36;99683.47;;;23.31;44.48
60646;BME280;46462;32.608;-117.032;2024-02-26T09:29:06;99663.57;;;23.28;44.55
60646;BME280;46462;32.608;-117.032;2024-02-26T09:31:37;99653.54;;;23.26;44.63
60646;BME280;46462;32.608;-117.032;2024-02-26T09:34:08;99640.34;;;23.20;44.81
60646;BME280;46462;32.608;-117.032;2024-02-26T09:36:39;99632.00;;;23.24;44.68
60646;BME280;46462;32.608;-117.032;2024-02-26T09:39:10;99618.94;;;23.17;44.88
60646;BME280;46462;32.608;-117.032;2024-02-26T09:41:40;99612.58;;;23.12;44.93
60646;BME280;46462;32.608;-117.032;2024-02-26T09:44:12;99620.84;;;23.14;44.84
60646;BME280;46462;32.608;-117.032;2024-02-26T09:46:43;99635.59;;;23.11;44.93
60646;BME280;46462;32.608;-117.032;2024-02-26T09:49:13;99627.51;;;23.10;44.88
60646;BME280;46462;32.608;-117.032;2024-02-26T09:51:44;99614.04;;;23.12;44.78
60646;BME280;46462;32.608;-117.032;2024-02-26T09:54:16;99600.94;;;23.11;44.74
60646;BME280;46462;32.608;-117.032;2024-02-26T09:56:48;99598.30;;;23.12;44.77
60646;BME280;46462;32.608;-117.032;2024-02-26T09:59:17;99607.82;;;23.14;44.64
60646;BME280;46462;32.608;-117.032;2024-02-26T10:01:47;99606.01;;;23.18;44.62
60646;BME280;46462;32.608;-117.032;2024-02-26T10:04:18;99606.59;;;23.20;44.46
60646;BME280;46462;32.608;-117.032;2024-02-26T10:06:48;99600.93;;;23.19;44.63
60646;BME280;46462;32.608;-117.032;2024-02-26T10:09:19;99597.33;;;23.19;44.54
60646;BME280;46462;32.608;-117.032;2024-02-26T10:11:49;99604.06;;;23.20;44.58
60646;BME280;46462;32.608;-117.032;2024-02-26T10:14:20;99611.45;;;23.20;44.47
60646;BME280;46462;32.608;-117.032;2024-02-26T10:16:51;99602.73;;;23.20;44.53
60646;BME280;46462;32.608;-117.032;2024-02-26T10:19:26;99588.31;;;23.12;44.67
60646;BME280;46462;32.608;-117.032;2024-02-26T10:21:56;99594.66;;;23.18;44.50
60646;BME280;46462;32.608;-117.032;2024-02-26T10:24:23;99599.26;;;23.14;44.67
60646;BME280;46462;32.608;-117.032;2024-02-26T10:26:56;99600.70;;;23.03;44.94
60646;BME280;46462;32.608;-117.032;2024-02-26T10:29:26;99603.78;;;22.99;45.06
60646;BME280;46462;32.608;-117.032;2024-02-26T10:31:56;99591.74;;;23.07;44.81
60646;BME280;46462;32.608;-117.032;2024-02-26T10:34:27;99581.53;;;22.97;45.11
60646;BME280;46462;32.608;-117.032;2024-02-26T10:36:57;99595.99;;;23.08;44.73
60646;BME280;46462;32.608;-117.032;2024-02-26T10:39:28;99608.71;;;23.06;44.72
60646;BME280;46462;32.608;-117.032;2024-02-26T10:42:00;99605.09;;;23.05;44.80
60646;BME280;46462;32.608;-117.032;2024-02-26T10:44:29;99607.45;;;23.00;44.94
60646;BME280;46462;32.608;-117.032;2024-02-26T10:47:00;99603.26;;;22.99;45.05
60646;BME280;46462;32.608;-117.032;2024-02-26T10:49:31;99598.68;;;22.91;45.20
60646;BME280;46462;32.608;-117.032;2024-02-26T10:52:02;99595.84;;;22.97;45.00
60646;BME280;46462;32.608;-117.032;2024-02-26T10:54:33;99593.67;;;22.97;45.03
60646;BME280;46462;32.608;-117.032;2024-02-26T10:57:04;99585.80;;;22.95;45.15
60646;BME280;46462;32.608;-117.032;2024-02-26T10:59:35;99587.51;;;22.95;45.08
60646;BME280;46462;32.608;-117.032;2024-02-26T11:02:05;99592.04;;;22.81;45.41
60646;BME280;46462;32.608;-117.032;2024-02-26T11:04:36;99581.10;;;22.89;45.08
60646;BME280;46462;32.608;-117.032;2024-02-26T11:07:09;99574.53;;;23.02;44.68
60646;BME280;46462;32.608;-117.032;2024-02-26T11:09:37;99574.93;;;22.96;44.96
60646;BME280;46462;32.608;-117.032;2024-02-26T11:12:09;99570.43;;;22.92;45.02
60646;BME280;46462;32.608;-117.032;2024-02-26T11:14:40;99570.32;;;22.74;45.44
60646;BME280;46462;32.608;-117.032;2024-02-26T11:17:10;99568.08;;;22.69;45.61
60646;BME280;46462;32.608;-117.032;2024-02-26T11:19:42;99566.27;;;22.63;45.82
60646;BME280;46462;32.608;-117.032;2024-02-26T11:22:11;99556.32;;;22.59;45.90
60646;BME280;46462;32.608;-117.032;2024-02-26T11:24:42;99540.66;;;22.65;45.72
60646;BME280;46462;32.608;-117.032;2024-02-26T11:27:13;99540.97;;;22.59;45.83
60646;BME280;46462;32.608;-117.032;2024-02-26T11:29:47;99554.25;;;22.46;46.08
60646;BME280;46462;32.608;-117.032;2024-02-26T11:32:14;99560.06;;;22.45;46.17
60646;BME280;46462;32.608;-117.032;2024-02-26T11:34:45;99557.34;;;22.61;45.70
60646;BME280;46462;32.608;-117.032;2024-02-26T11:37:17;99554.78;;;22.52;45.95
60646;BME280;46462;32.608;-117.032;2024-02-26T11:39:47;99556.92;;;22.68;45.46
60646;BME280;46462;32.608;-117.032;2024-02-26T11:42:17;99565.14;;;22.54;45.86
60646;BME280;46462;32.608;-117.032;2024-02-26T11:44:48;99564.08;;;22.44;46.09
60646;BME280;46462;32.608;-117.032;2024-02-26T11:47:20;99564.17;;;22.37;46.32
60646;BME280;46462;32.608;-117.032;2024-02-26T11:49:50;99571.45;;;22.34;46.32
60646;BME280;46462;32.608;-117.032;2024-02-26T11:52:20;99581.17;;;22.36;46.26
60646;BME280;46462;32.608;-117.032;2024-02-26T11:54:52;99592.49;;;22.44;46.02
60646;BME280;46462;32.608;-117.032;2024-02-26T11:57:24;99608.17;;;22.29;46.44
60646;BME280;46462;32.608;-117.032;2024-02-26T11:59:53;99603.80;;;22.14;46.70
60646;BME280;46462;32.608;-117.032;2024-02-26T12:04:54;99602.82;;;22.09;46.78
60646;BME280;46462;32.608;-117.032;2024-02-26T12:07:25;99599.71;;;22.01;47.04
60646;BME280;46462;32.608;-117.032;2024-02-26T12:12:27;99605.51;;;21.86;47.31
60646;BME280;46462;32.608;-117.032;2024-02-26T12:14:57;99597.57;;;21.97;47.13
60646;BME280;46462;32.608;-117.032;2024-02-26T12:17:28;99602.02;;;21.95;47.06
60646;BME280;46462;32.608;-117.032;2024-02-26T12:22:29;99634.85;;;21.99;46.99
60646;BME280;46462;32.608;-117.032;2024-02-26T12:25:00;99633.35;;;22.13;46.67
60646;BME280;46462;32.608;-117.032;2024-02-26T12:27:31;99641.25;;;22.19;46.47
60646;BME280;46462;32.608;-117.032;2024-02-26T12:30:02;99648.17;;;22.18;46.53
60646;BME280;46462;32.608;-117.032;2024-02-26T12:32:33;99640.60;;;22.18;46.40
60646;BME280;46462;32.608;-117.032;2024-02-26T12:35:08;99625.60;;;22.15;46.49
60646;BME280;46462;32.608;-117.032;2024-02-26T12:37:38;99623.74;;;22.24;46.32
60646;BME280;46462;32.608;-117.032;2024-02-26T12:40:09;99622.95;;;22.25;46.23
60646;BME280;46462;32.608;-117.032;2024-02-26T12:42:39;99624.66;;;22.23;46.17
60646;BME280;46462;32.608;-117.032;2024-02-26T12:45:10;99622.69;;;22.17;46.38
60646;BME280;46462;32.608;-117.032;2024-02-26T12:47:40;99614.06;;;22.04;46.71
60646;BME280;46462;32.608;-117.032;2024-02-26T12:50:11;99596.88;;;22.06;46.74
60646;BME280;46462;32.608;-117.032;2024-02-26T12:52:43;99580.50;;;21.95;46.92
60646;BME280;46462;32.608;-117.032;2024-02-26T12:55:15;99580.16;;;21.92;46.96